Baneberry, Tennessee
Current Conditions -  °F | °C
As of 12:55 PM on Monday 24 Nov 2014 (Local Time) from KMOR Reporting Station
Few Clouds Few Clouds  
Wind Chill: 70°   Ceiling: Unl
Heat Index: 70°   Visibility: 10mi
Dew Point: 48°   Wind: 21mph
Humidity: 46%   Direction: 230°SW
Pressure: 29.71"   Gusts: NA
Location:  36.0865°N, 83.3026°W
Report Text: KMOR 241755Z AUTO 23018KT 10SM FEW050 21/09 A2971 RMK
Loading
Personal Weather Stations






























Interactive Weather Map New forecast layout! Learn more

10-Day Weather Forecast

Advertisements
Track Severe Weather on mobile